Time;durP1;ratioP1;P1;durP2;ratioP2;P2;SDS_P1;SDS_P2;PMS_P1;PMS_P2;Temp;Humidity;BMP_temperature;BMP_pressure;BME280_temperature;BME280_humidity;BME280_pressure;Samples;Min_cycle;Max_cycle;Signal;HPM_P1;HPM_P2
2022/05/20 00:00:03;;;;;;;4.65;3.03;;;;;;;;;;143751;609;45021;-60
2022/05/20 00:02:30;;;;;;;2.70;2.47;;;;;;;;;;143747;571;47020;-60
2022/05/20 00:04:57;;;;;;;5.22;3.20;;;;;;;;;;143746;578;47012;-60
2022/05/20 00:07:24;;;;;;;4.75;3.22;;;;;;;;;;143748;589;45021;-60
2022/05/20 00:09:51;;;;;;;4.22;3.12;;;;;;;;;;143752;582;45020;-60
2022/05/20 00:12:19;;;;;;;3.80;2.50;;;;;;;;;;143746;565;47022;-60
2022/05/20 00:14:46;;;;;;;5.25;3.37;;;;;;;;;;143746;585;46013;-60
2022/05/20 00:17:13;;;;;;;5.12;2.87;;;;;;;;;;143748;694;45020;-60
2022/05/20 00:19:40;;;;;;;6.37;3.15;;;;;;;;;;143751;679;46020;-60
2022/05/20 00:22:07;;;;;;;7.62;3.33;;;;;;;;;;143740;566;47021;-60
2022/05/20 00:25:45;;;;;;;6.07;3.22;;;;;;;;;;143748;574;47012;-60
2022/05/20 00:27:21;;;;;;;3.75;2.80;;;;;;;;;;143750;709;45022;-60
2022/05/20 00:29:48;;;;;;;7.32;4.18;;;;;;;;;;143751;607;45021;-60
2022/05/20 00:32:15;;;;;;;7.30;3.62;;;;;;;;;;143748;591;47022;-60
2022/05/20 00:34:42;;;;;;;4.85;3.17;;;;;;;;;;143747;595;46012;-60
2022/05/20 00:37:09;;;;;;;6.12;3.55;;;;;;;;;;143749;588;45021;-60
2022/05/20 00:39:37;;;;;;;5.15;3.40;;;;;;;;;;143752;586;45020;-60
2022/05/20 00:42:17;;;;;;;8.32;4.57;;;;;;;;;;143747;577;47020;-60
2022/05/20 00:44:44;;;;;;;8.23;3.83;;;;;;;;;;143748;585;47012;-60
2022/05/20 00:47:13;;;;;;;6.65;3.05;;;;;;;;;;143743;582;45020;-60
2022/05/20 00:49:45;;;;;;;11.10;3.33;;;;;;;;;;143750;600;46020;-60
2022/05/20 00:52:16;;;;;;;7.50;2.75;;;;;;;;;;143747;581;47021;-60
2022/05/20 00:54:49;;;;;;;4.50;2.97;;;;;;;;;;143746;588;47012;-60
2022/05/20 00:57:28;;;;;;;6.45;2.92;;;;;;;;;;143751;627;45021;-60
2022/05/20 01:00:12;;;;;;;4.07;3.05;;;;;;;;;;143753;609;45021;-60
2022/05/20 01:02:40;;;;;;;9.82;3.60;;;;;;;;;;143747;641;47020;-60
2022/05/20 01:05:21;;;;;;;4.10;2.80;;;;;;;;;;143746;573;47012;-60
2022/05/20 01:07:49;;;;;;;4.25;2.85;;;;;;;;;;143744;740;46021;-60
2022/05/20 01:10:16;;;;;;;6.18;3.12;;;;;;;;;;143751;575;46020;-60
2022/05/20 01:12:43;;;;;;;4.60;3.37;;;;;;;;;;143741;597;47021;-60
2022/05/20 01:15:10;;;;;;;2.90;2.50;;;;;;;;;;143744;578;47012;-60
2022/05/20 01:17:38;;;;;;;4.45;3.25;;;;;;;;;;143746;571;45913;-61
2022/05/20 01:20:09;;;;;;;6.87;3.17;;;;;;;;;;143753;583;45021;-60
2022/05/20 01:23:05;;;;;;;3.90;2.75;;;;;;;;;;143749;571;47020;-60
2022/05/20 01:25:32;;;;;;;4.43;2.45;;;;;;;;;;143748;591;46012;-60
2022/05/20 01:27:59;;;;;;;3.97;2.72;;;;;;;;;;143750;588;45021;-61
2022/05/20 01:30:29;;;;;;;4.43;2.95;;;;;;;;;;143752;577;46010;-60
2022/05/20 01:32:58;;;;;;;5.40;3.42;;;;;;;;;;143749;650;47020;-60
2022/05/20 01:35:46;;;;;;;6.82;3.35;;;;;;;;;;143748;592;47013;-60
2022/05/20 01:38:13;;;;;;;9.68;3.90;;;;;;;;;;143746;589;45021;-61
2022/05/20 01:41:11;;;;;;;5.50;3.80;;;;;;;;;;143753;657;45020;-61
2022/05/20 01:44:14;;;;;;;4.25;3.10;;;;;;;;;;143748;593;47021;-61
2022/05/20 01:46:52;;;;;;;10.02;5.30;;;;;;;;;;143747;616;47012;-60
2022/05/20 01:50:01;;;;;;;9.48;5.53;;;;;;;;;;143748;575;45021;-61
2022/05/20 01:52:48;;;;;;;21.25;9.38;;;;;;;;;;143753;583;46021;-60
2022/05/20 01:55:30;;;;;;;16.67;8.85;;;;;;;;;;143747;573;47022;-60
2022/05/20 01:58:08;;;;;;;16.20;8.10;;;;;;;;;;143748;567;46013;-60
2022/05/20 02:00:36;;;;;;;15.40;6.62;;;;;;;;;;143751;577;45021;-60
2022/05/20 02:03:27;;;;;;;17.75;8.40;;;;;;;;;;143753;707;45020;-60
2022/05/20 02:06:11;;;;;;;13.93;8.07;;;;;;;;;;143743;583;47022;-60
2022/05/20 02:09:07;;;;;;;13.00;7.55;;;;;;;;;;143748;647;46020;-59
2022/05/20 02:11:47;;;;;;;19.48;8.82;;;;;;;;;;143752;616;45020;-60
2022/05/20 02:14:31;;;;;;;19.20;9.90;;;;;;;;;;143751;613;46021;-60
2022/05/20 02:17:22;;;;;;;19.00;11.07;;;;;;;;;;143750;571;47020;-60
2022/05/20 02:19:57;;;;;;;21.80;10.00;;;;;;;;;;143742;600;46013;-60
2022/05/20 02:22:30;;;;;;;21.67;13.15;;;;;;;;;;143744;680;45021;-60
2022/05/20 02:25:00;;;;;;;19.90;10.25;;;;;;;;;;143745;581;46020;-60
2022/05/20 02:27:32;;;;;;;24.92;11.50;;;;;;;;;;143741;758;47022;-60
2022/05/20 02:30:15;;;;;;;18.17;9.13;;;;;;;;;;143741;736;47012;-60
2022/05/20 02:33:07;;;;;;;14.30;7.95;;;;;;;;;;143745;581;45022;-60
2022/05/20 02:35:36;;;;;;;13.62;7.85;;;;;;;;;;143753;682;46020;-61
2022/05/20 02:38:28;;;;;;;14.57;8.20;;;;;;;;;;143749;567;47020;-60
2022/05/20 02:40:55;;;;;;;17.23;7.87;;;;;;;;;;143750;598;46012;-60
2022/05/20 02:43:23;;;;;;;12.02;7.15;;;;;;;;;;143749;589;45021;-61
2022/05/20 02:45:52;;;;;;;16.12;7.80;;;;;;;;;;143754;588;45020;-60
2022/05/20 02:48:20;;;;;;;13.43;7.35;;;;;;;;;;143750;569;47020;-60
2022/05/20 02:50:49;;;;;;;20.70;7.20;;;;;;;;;;143747;634;47012;-60
2022/05/20 02:53:16;;;;;;;15.68;7.78;;;;;;;;;;143750;576;45020;-60
2022/05/20 02:55:43;;;;;;;11.70;7.03;;;;;;;;;;143753;614;45020;-60
2022/05/20 03:04:09;;;;;;;23.48;8.38;;;;;;;;;;143741;714;47021;-60
2022/05/20 03:06:26;;;;;;;14.87;7.22;;;;;;;;;;143753;606;46012;-61
2022/05/20 03:08:53;;;;;;;12.65;7.68;;;;;;;;;;143747;603;47022;-60
2022/05/20 03:11:20;;;;;;;11.05;5.90;;;;;;;;;;143739;586;47013;-60
2022/05/20 03:13:48;;;;;;;9.90;5.82;;;;;;;;;;143752;702;45021;-60
2022/05/20 03:16:15;;;;;;;14.20;6.32;;;;;;;;;;143754;606;45031;-60
2022/05/20 03:18:42;;;;;;;16.17;6.78;;;;;;;;;;143748;644;47020;-60
2022/05/20 03:21:09;;;;;;;14.60;6.40;;;;;;;;;;143745;583;47024;-60
2022/05/20 03:23:36;;;;;;;10.05;6.25;;;;;;;;;;143744;572;45020;-60
2022/05/20 03:26:05;;;;;;;10.18;6.10;;;;;;;;;;143751;599;45020;-60
2022/05/20 03:28:33;;;;;;;10.60;5.55;;;;;;;;;;143748;576;47021;-60
2022/05/20 03:31:10;;;;;;;11.82;5.78;;;;;;;;;;143747;625;46012;-60
2022/05/20 03:33:38;;;;;;;14.77;6.78;;;;;;;;;;143750;699;45914;-60
2022/05/20 03:36:06;;;;;;;10.80;5.72;;;;;;;;;;143752;587;45022;-60
2022/05/20 03:38:34;;;;;;;11.18;5.68;;;;;;;;;;143750;583;47020;-59
2022/05/20 03:41:02;;;;;;;9.13;5.30;;;;;;;;;;143749;597;46013;-60
2022/05/20 03:43:29;;;;;;;21.92;6.60;;;;;;;;;;143750;564;45913;-60
2022/05/20 03:45:56;;;;;;;13.52;6.65;;;;;;;;;;143753;741;46020;-60
2022/05/20 03:48:23;;;;;;;15.15;6.07;;;;;;;;;;143742;646;47021;-61
2022/05/20 03:50:50;;;;;;;11.77;5.30;;;;;;;;;;143747;590;47012;-60
2022/05/20 03:53:17;;;;;;;15.85;5.93;;;;;;;;;;143744;565;46020;-60
2022/05/20 03:55:44;;;;;;;12.48;6.60;;;;;;;;;;143754;676;45020;-60
2022/05/20 03:58:12;;;;;;;11.82;6.82;;;;;;;;;;143749;602;47023;-59
2022/05/20 04:03:25;;;;;;;9.77;5.37;;;;;;;;;;143751;571;46021;-60
2022/05/20 04:05:54;;;;;;;10.85;6.12;;;;;;;;;;143752;596;46021;-59
2022/05/20 04:08:21;;;;;;;17.15;6.47;;;;;;;;;;143748;579;47022;-59
2022/05/20 04:10:48;;;;;;;13.13;6.85;;;;;;;;;;143747;578;46013;-59
2022/05/20 04:13:14;;;;;;;13.98;7.10;;;;;;;;;;143745;576;45021;-58
2022/05/20 04:15:41;;;;;;;19.17;7.68;;;;;;;;;;143752;576;46020;-58
2022/05/20 04:18:09;;;;;;;9.93;4.97;;;;;;;;;;143748;582;47022;-58
2022/05/20 04:20:36;;;;;;;13.73;6.40;;;;;;;;;;143747;589;47012;-58
2022/05/20 04:23:03;;;;;;;12.43;5.75;;;;;;;;;;143750;581;45020;-59
2022/05/20 04:25:30;;;;;;;15.90;6.35;;;;;;;;;;143746;572;46020;-58
2022/05/20 04:27:57;;;;;;;10.18;5.87;;;;;;;;;;143747;577;47023;-58
2022/05/20 04:30:24;;;;;;;10.38;5.80;;;;;;;;;;143747;725;47012;-59
2022/05/20 04:32:51;;;;;;;13.38;5.82;;;;;;;;;;143750;611;45020;-59
2022/05/20 04:35:18;;;;;;;10.88;6.15;;;;;;;;;;143750;613;46021;-58
2022/05/20 04:37:45;;;;;;;12.07;5.47;;;;;;;;;;143740;603;47022;-59
2022/05/20 04:40:13;;;;;;;11.32;6.00;;;;;;;;;;143748;572;46013;-58
2022/05/20 04:48:09;;;;;;;13.00;5.70;;;;;;;;;;143747;593;47012;-60
2022/05/20 04:50:37;;;;;;;9.48;5.30;;;;;;;;;;143748;606;46012;-59
2022/05/20 04:53:04;;;;;;;18.48;5.87;;;;;;;;;;143748;575;45018;-59
2022/05/20 04:55:31;;;;;;;11.60;6.15;;;;;;;;;;143754;618;45023;-59
2022/05/20 04:57:59;;;;;;;16.62;6.10;;;;;;;;;;143750;617;47018;-59
2022/05/20 05:00:28;;;;;;;21.62;5.78;;;;;;;;;;143749;639;46026;-60
2022/05/20 05:02:56;;;;;;;25.62;6.65;;;;;;;;;;143744;618;45018;-60
2022/05/20 05:05:25;;;;;;;18.55;4.32;;;;;;;;;;143753;610;45023;-60
2022/05/20 05:07:54;;;;;;;15.30;5.28;;;;;;;;;;143749;604;47020;-60
2022/05/20 05:10:27;;;;;;;38.35;8.90;;;;;;;;;;143747;690;47012;-60
2022/05/20 05:12:54;;;;;;;28.23;6.53;;;;;;;;;;143749;673;45019;-60
2022/05/20 05:15:21;;;;;;;26.00;6.55;;;;;;;;;;143751;596;45025;-60
2022/05/20 05:20:33;;;;;;;19.05;6.50;;;;;;;;;;143749;632;46023;-59
2022/05/20 05:23:01;;;;;;;18.55;7.22;;;;;;;;;;143750;721;45018;-59
2022/05/20 05:25:32;;;;;;;17.17;6.10;;;;;;;;;;143754;565;45023;-59
2022/05/20 05:28:00;;;;;;;10.35;5.12;;;;;;;;;;143742;697;47018;-59
2022/05/20 05:30:27;;;;;;;13.27;6.10;;;;;;;;;;143749;607;46033;-59
2022/05/20 05:32:54;;;;;;;18.70;8.98;;;;;;;;;;143750;579;45019;-57
2022/05/20 05:35:24;;;;;;;16.87;9.63;;;;;;;;;;143752;582;45023;-58
2022/05/20 05:37:51;;;;;;;19.70;10.20;;;;;;;;;;143748;592;47020;-58
2022/05/20 05:40:22;;;;;;;17.77;8.98;;;;;;;;;;143741;607;47012;-58
2022/05/20 05:42:49;;;;;;;16.10;8.50;;;;;;;;;;143750;586;45019;-59
2022/05/20 05:45:19;;;;;;;11.77;6.28;;;;;;;;;;143753;587;46022;-58
2022/05/20 05:47:55;;;;;;;17.48;5.78;;;;;;;;;;143748;609;47019;-59
2022/05/20 05:50:22;;;;;;;11.93;6.43;;;;;;;;;;143749;631;46012;-59
2022/05/20 05:53:00;;;;;;;16.27;8.05;;;;;;;;;;143744;575;46012;-59
2022/05/20 05:55:28;;;;;;;11.88;7.18;;;;;;;;;;143753;606;46022;-59
2022/05/20 05:57:55;;;;;;;10.70;5.70;;;;;;;;;;143745;583;47018;-59
2022/05/20 06:00:22;;;;;;;14.45;5.65;;;;;;;;;;143745;573;47012;-59
2022/05/20 06:02:49;;;;;;;16.00;5.68;;;;;;;;;;143742;703;46018;-59
2022/05/20 06:05:16;;;;;;;15.50;7.53;;;;;;;;;;143751;608;45023;-59
2022/05/20 06:07:43;;;;;;;13.80;6.37;;;;;;;;;;143746;591;47018;-58
2022/05/20 06:10:10;;;;;;;16.40;7.90;;;;;;;;;;143746;570;46012;-59
2022/05/20 06:12:37;;;;;;;11.23;6.50;;;;;;;;;;143744;569;45018;-59
2022/05/20 06:15:09;;;;;;;17.77;8.52;;;;;;;;;;143736;586;46010;-58
2022/05/20 06:17:37;;;;;;;13.60;6.60;;;;;;;;;;143731;619;47019;-58
2022/05/20 06:20:04;;;;;;;13.48;6.30;;;;;;;;;;143733;570;46012;-59
2022/05/20 06:22:31;;;;;;;13.10;5.72;;;;;;;;;;143731;590;45018;-59
2022/05/20 06:24:58;;;;;;;8.00;3.97;;;;;;;;;;143736;621;46022;-59
2022/05/20 06:27:25;;;;;;;8.00;3.58;;;;;;;;;;143731;631;47018;-59
2022/05/20 06:29:52;;;;;;;3.12;2.30;;;;;;;;;;143733;588;46032;-59
2022/05/20 06:32:20;;;;;;;8.82;4.12;;;;;;;;;;143731;587;46018;-58
2022/05/20 06:40:19;;;;;;;13.45;5.28;;;;;;;;;;143739;583;46013;-58
2022/05/20 06:42:46;;;;;;;5.12;2.83;;;;;;;;;;143730;564;47018;-59
2022/05/20 06:45:14;;;;;;;5.32;2.45;;;;;;;;;;143736;575;46022;-58
2022/05/20 06:47:41;;;;;;;8.88;3.03;;;;;;;;;;143731;649;47019;-58
2022/05/20 06:50:10;;;;;;;6.43;3.10;;;;;;;;;;143731;584;47012;-58
2022/05/20 06:52:37;;;;;;;3.85;2.72;;;;;;;;;;143733;635;45018;-58
2022/05/20 06:55:04;;;;;;;10.25;3.97;;;;;;;;;;143736;588;46013;-58
2022/05/20 06:57:36;;;;;;;4.97;2.62;;;;;;;;;;143732;602;47018;-59
2022/05/20 07:00:05;;;;;;;9.18;5.68;;;;;;;;;;143733;564;46014;-58
2022/05/20 07:02:32;;;;;;;8.55;4.10;;;;;;;;;;143735;586;46012;-58
2022/05/20 07:05:03;;;;;;;10.93;6.43;;;;;;;;;;143736;620;46010;-59
2022/05/20 07:07:31;;;;;;;5.35;2.92;;;;;;;;;;143733;608;47018;-58
2022/05/20 07:09:58;;;;;;;9.40;3.03;;;;;;;;;;143732;606;47013;-58
2022/05/20 07:12:26;;;;;;;6.70;2.95;;;;;;;;;;143735;594;45019;-59
2022/05/20 07:14:53;;;;;;;3.53;2.60;;;;;;;;;;143750;578;45022;-59
2022/05/20 07:17:20;;;;;;;6.05;2.85;;;;;;;;;;143748;564;47019;-59
2022/05/20 07:19:50;;;;;;;4.95;2.70;;;;;;;;;;143747;603;47012;-59
2022/05/20 07:22:17;;;;;;;5.00;2.78;;;;;;;;;;143747;564;45018;-58
2022/05/20 07:24:44;;;;;;;5.30;2.47;;;;;;;;;;143749;570;46013;-58
2022/05/20 07:27:11;;;;;;;4.68;2.95;;;;;;;;;;143745;576;47021;-59
2022/05/20 07:29:38;;;;;;;5.87;2.85;;;;;;;;;;143747;637;46012;-59
2022/05/20 07:32:06;;;;;;;8.82;2.97;;;;;;;;;;143743;583;45019;-58
2022/05/20 07:34:33;;;;;;;5.25;2.67;;;;;;;;;;143750;581;45023;-58
2022/05/20 07:37:00;;;;;;;10.02;2.92;;;;;;;;;;143746;598;47020;-59
2022/05/20 07:39:27;;;;;;;5.65;2.80;;;;;;;;;;143745;605;47013;-59
2022/05/20 07:41:55;;;;;;;5.32;2.40;;;;;;;;;;143746;627;45019;-59
2022/05/20 07:44:22;;;;;;;6.32;2.53;;;;;;;;;;143752;587;46022;-58
2022/05/20 07:46:49;;;;;;;7.70;2.80;;;;;;;;;;143746;564;47020;-59
2022/05/20 07:49:16;;;;;;;8.30;2.80;;;;;;;;;;143746;576;47012;-59
2022/05/20 07:51:47;;;;;;;4.53;1.85;;;;;;;;;;143743;639;46018;-59
2022/05/20 07:54:20;;;;;;;7.28;2.95;;;;;;;;;;143752;588;46022;-59
2022/05/20 07:57:02;;;;;;;5.15;2.58;;;;;;;;;;143738;646;47021;-58
2022/05/20 07:59:38;;;;;;;5.68;3.55;;;;;;;;;;143746;573;46012;-58
2022/05/20 08:02:05;;;;;;;8.73;3.72;;;;;;;;;;143743;569;46019;-59
2022/05/20 08:04:53;;;;;;;11.63;4.75;;;;;;;;;;143752;591;46023;-60
2022/05/20 08:07:22;;;;;;;9.30;4.53;;;;;;;;;;143747;570;47020;-60
2022/05/20 08:09:49;;;;;;;8.00;4.12;;;;;;;;;;143748;600;46013;-60
2022/05/20 08:12:16;;;;;;;5.72;3.50;;;;;;;;;;143747;604;46018;-60
2022/05/20 08:14:43;;;;;;;9.27;4.62;;;;;;;;;;143751;609;46022;-59
2022/05/20 08:17:10;;;;;;;10.35;4.72;;;;;;;;;;143746;589;47019;-59
2022/05/20 08:19:38;;;;;;;6.25;4.43;;;;;;;;;;143746;588;46012;-59
2022/05/20 08:22:06;;;;;;;4.53;3.15;;;;;;;;;;143744;577;45018;-59
2022/05/20 08:24:33;;;;;;;7.82;3.85;;;;;;;;;;143748;584;46023;-59
2022/05/20 08:27:00;;;;;;;12.20;4.70;;;;;;;;;;143746;575;47018;-59
2022/05/20 08:29:27;;;;;;;10.80;4.70;;;;;;;;;;143745;625;47012;-59
2022/05/20 08:31:54;;;;;;;6.93;4.15;;;;;;;;;;143748;650;46019;-59
2022/05/20 08:34:21;;;;;;;8.13;3.97;;;;;;;;;;143749;570;46012;-59
2022/05/20 08:36:48;;;;;;;5.40;3.20;;;;;;;;;;143746;628;47018;-60
2022/05/20 08:39:15;;;;;;;5.35;3.40;;;;;;;;;;143745;630;47012;-60
2022/05/20 08:41:48;;;;;;;6.00;2.83;;;;;;;;;;143745;629;46019;-60
2022/05/20 08:44:18;;;;;;;4.72;2.90;;;;;;;;;;143751;587;45022;-60
2022/05/20 08:46:47;;;;;;;5.78;3.08;;;;;;;;;;143740;566;47020;-60
2022/05/20 08:49:18;;;;;;;5.60;2.58;;;;;;;;;;143745;582;47006;-60
2022/05/20 08:51:53;;;;;;;7.00;2.42;;;;;;;;;;143748;567;45018;-60
2022/05/20 08:54:20;;;;;;;7.18;4.03;;;;;;;;;;143750;609;46022;-60
2022/05/20 08:56:49;;;;;;;17.52;11.02;;;;;;;;;;143746;604;47018;-60
2022/05/20 08:59:22;;;;;;;12.20;8.75;;;;;;;;;;143740;589;46031;-60
2022/05/20 09:01:51;;;;;;;12.27;5.68;;;;;;;;;;143746;592;47018;-60
2022/05/20 09:04:22;;;;;;;5.80;3.55;;;;;;;;;;143749;644;46013;-60
2022/05/20 09:07:19;;;;;;;16.85;4.40;;;;;;;;;;143747;631;47020;-60
2022/05/20 09:09:52;;;;;;;6.75;2.95;;;;;;;;;;143744;601;47012;-60
2022/05/20 09:12:32;;;;;;;6.05;3.83;;;;;;;;;;143742;594;45018;-60
2022/05/20 09:18:11;;;;;;;6.62;3.28;;;;;;;;;;143749;585;47019;-59
2022/05/20 09:20:50;;;;;;;4.18;2.70;;;;;;;;;;143747;606;46012;-60
2022/05/20 09:23:20;;;;;;;3.30;2.30;;;;;;;;;;143748;566;45019;-59
2022/05/20 09:26:09;;;;;;;7.97;3.17;;;;;;;;;;143751;579;45023;-59
2022/05/20 09:29:06;;;;;;;4.68;3.00;;;;;;;;;;143748;579;47018;-59
2022/05/20 09:31:48;;;;;;;6.53;2.50;;;;;;;;;;143745;573;47012;-59
2022/05/20 09:34:30;;;;;;;5.12;2.10;;;;;;;;;;143745;569;45911;-60
2022/05/20 09:37:00;;;;;;;3.15;2.12;;;;;;;;;;143750;574;46022;-60
2022/05/20 09:39:39;;;;;;;3.58;1.98;;;;;;;;;;143739;583;47020;-59
2022/05/20 09:42:29;;;;;;;7.53;2.47;;;;;;;;;;143745;576;47012;-59
2022/05/20 09:45:01;;;;;;;16.48;11.40;;;;;;;;;;143747;591;45018;-59
2022/05/20 09:47:53;;;;;;;16.10;10.85;;;;;;;;;;143742;647;46023;-58
2022/05/20 09:50:33;;;;;;;8.27;4.82;;;;;;;;;;143741;585;47018;-58
2022/05/20 09:53:39;;;;;;;6.57;4.47;;;;;;;;;;143746;582;47012;-58
2022/05/20 09:56:29;;;;;;;7.53;4.18;;;;;;;;;;143748;594;45019;-58
2022/05/20 09:59:32;;;;;;;3.83;2.65;;;;;;;;;;143752;633;46022;-58
2022/05/20 10:02:14;;;;;;;4.12;2.90;;;;;;;;;;143747;566;46013;-59
2022/05/20 10:05:07;;;;;;;1.83;1.45;;;;;;;;;;143746;593;46012;-59
2022/05/20 10:08:23;;;;;;;5.15;2.25;;;;;;;;;;143741;608;45018;-59
2022/05/20 10:11:11;;;;;;;3.90;2.20;;;;;;;;;;143749;585;45023;-59
2022/05/20 10:14:03;;;;;;;3.42;2.20;;;;;;;;;;143746;569;47018;-59
2022/05/20 10:17:11;;;;;;;4.07;2.45;;;;;;;;;;143745;625;46013;-58
2022/05/20 10:20:12;;;;;;;2.87;2.20;;;;;;;;;;143746;677;45020;-59
2022/05/20 10:23:27;;;;;;;4.93;2.25;;;;;;;;;;143751;611;46022;-59
2022/05/20 10:26:00;;;;;;;;;;;;;;;;;;143751;980;47023;-60
2022/05/20 10:34:38;;;;;;;;;;;;;;;;;;143755;980;46012;-59
2022/05/20 10:37:23;;;;;;;9.02;5.32;;;;;;;;;;143753;671;47018;-59
2022/05/20 10:40:37;;;;;;;4.07;2.75;;;;;;;;;;143747;644;46013;-59
2022/05/20 10:43:26;;;;;;;8.60;3.50;;;;;;;;;;143746;566;45018;-61
2022/05/20 10:49:18;;;;;;;7.10;2.72;;;;;;;;;;143748;579;45018;-59
2022/05/20 10:52:15;;;;;;;4.82;2.67;;;;;;;;;;143746;571;46012;-59
2022/05/20 10:55:05;;;;;;;4.45;1.50;;;;;;;;;;143746;651;45019;-59
2022/05/20 10:58:08;;;;;;;4.93;2.08;;;;;;;;;;143750;691;45022;-59
2022/05/20 11:01:03;;;;;;;3.20;1.75;;;;;;;;;;143748;687;47019;-60
2022/05/20 11:04:23;;;;;;;7.85;5.00;;;;;;;;;;143747;588;46012;-59
2022/05/20 11:07:17;;;;;;;9.00;5.82;;;;;;;;;;143743;575;45018;-59
2022/05/20 11:10:05;;;;;;;7.75;4.20;;;;;;;;;;143752;573;46023;-60
2022/05/20 11:13:10;;;;;;;7.00;4.10;;;;;;;;;;143747;592;47018;-58
2022/05/20 11:16:28;;;;;;;4.53;3.60;;;;;;;;;;143745;717;47012;-59
2022/05/20 11:19:21;;;;;;;7.00;2.78;;;;;;;;;;143748;574;45018;-60
2022/05/20 11:22:31;;;;;;;2.55;2.17;;;;;;;;;;143750;582;46022;-59
2022/05/20 11:25:33;;;;;;;2.78;1.55;;;;;;;;;;143746;581;47023;-60
2022/05/20 11:28:25;;;;;;;4.68;1.83;;;;;;;;;;143747;619;46012;-59
2022/05/20 11:31:21;;;;;;;3.78;2.30;;;;;;;;;;143748;613;45019;-59
2022/05/20 11:34:41;;;;;;;5.12;1.98;;;;;;;;;;143751;577;45022;-59
2022/05/20 11:37:40;;;;;;;7.07;2.35;;;;;;;;;;143740;564;47019;-60
2022/05/20 11:40:41;;;;;;;9.25;5.87;;;;;;;;;;143745;581;47012;-59
2022/05/20 11:43:40;;;;;;;20.80;13.60;;;;;;;;;;143748;574;45018;-59
2022/05/20 11:46:59;;;;;;;15.15;5.85;;;;;;;;;;143745;587;46022;-60
2022/05/20 11:50:11;;;;;;;7.68;5.35;;;;;;;;;;143748;640;47018;-60
2022/05/20 11:53:41;;;;;;;7.35;4.10;;;;;;;;;;143746;567;46013;-59
2022/05/20 11:56:29;;;;;;;6.75;3.03;;;;;;;;;;143742;569;45018;-58
2022/05/20 11:59:16;;;;;;;4.10;2.28;;;;;;;;;;143744;587;46022;-58
2022/05/20 12:01:47;;;;;;;5.43;2.72;;;;;;;;;;143740;575;47018;-59
2022/05/20 12:04:15;;;;;;;4.22;2.50;;;;;;;;;;143739;573;47012;-59
2022/05/20 12:06:59;;;;;;;4.87;2.70;;;;;;;;;;143741;671;45018;-59
2022/05/20 12:09:40;;;;;;;1.92;1.77;;;;;;;;;;143745;578;45023;-58
2022/05/20 12:12:28;;;;;;;3.87;2.20;;;;;;;;;;143740;645;47020;-58
2022/05/20 12:15:34;;;;;;;4.47;2.28;;;;;;;;;;143739;594;47022;-59
2022/05/20 12:24:12;;;;;;;3.65;2.08;;;;;;;;;;143743;575;45018;-59
2022/05/20 12:24:15;;;;;;;4.93;1.73;;;;;;;;;;143742;624;47021;-58
2022/05/20 12:26:50;;;;;;;2.37;1.33;;;;;;;;;;143740;628;46012;-59
2022/05/20 12:29:52;;;;;;;3.55;2.33;;;;;;;;;;143743;588;45912;-58
2022/05/20 12:32:40;;;;;;;6.93;2.53;;;;;;;;;;143746;607;45023;-59
2022/05/20 12:35:22;;;;;;;5.03;1.67;;;;;;;;;;143740;721;47020;-58
2022/05/20 12:37:59;;;;;;;5.00;1.85;;;;;;;;;;143741;598;47022;-59
2022/05/20 12:40:50;;;;;;;4.18;2.45;;;;;;;;;;143741;564;45911;-58
2022/05/20 12:43:17;;;;;;;2.25;1.87;;;;;;;;;;143745;587;46012;-58
2022/05/20 12:46:02;;;;;;;4.75;2.15;;;;;;;;;;143738;586;47020;-57
2022/05/20 12:48:31;;;;;;;3.92;2.30;;;;;;;;;;143741;578;46012;-58
2022/05/20 12:51:09;;;;;;;4.18;2.28;;;;;;;;;;143741;563;45018;-58
2022/05/20 12:53:40;;;;;;;4.20;2.08;;;;;;;;;;143745;581;45023;-58
2022/05/20 12:56:25;;;;;;;2.20;1.62;;;;;;;;;;143741;583;47020;-57
2022/05/20 12:58:52;;;;;;;2.83;2.12;;;;;;;;;;143741;565;47012;-57
2022/05/20 13:01:19;;;;;;;3.65;2.17;;;;;;;;;;143739;630;45914;-57
2022/05/20 13:03:51;;;;;;;2.70;1.67;;;;;;;;;;143743;583;45022;-57
2022/05/20 13:06:27;;;;;;;3.25;2.28;;;;;;;;;;143742;596;47018;-57
2022/05/20 13:09:04;;;;;;;4.43;2.03;;;;;;;;;;143740;633;47012;-58
2022/05/20 13:11:45;;;;;;;9.73;2.28;;;;;;;;;;143742;564;45018;-57
2022/05/20 13:14:14;;;;;;;4.53;2.25;;;;;;;;;;143746;607;46022;-58
2022/05/20 13:16:46;;;;;;;5.72;2.05;;;;;;;;;;143740;667;47023;-58
2022/05/20 13:19:15;;;;;;;3.85;2.40;;;;;;;;;;143742;565;46012;-57
2022/05/20 13:21:51;;;;;;;2.00;1.85;;;;;;;;;;143743;622;45019;-57
2022/05/20 13:24:24;;;;;;;2.95;1.95;;;;;;;;;;143745;583;45023;-58
2022/05/20 13:27:03;;;;;;;3.00;2.08;;;;;;;;;;143739;640;47018;-58
2022/05/20 13:29:31;;;;;;;2.42;2.00;;;;;;;;;;143741;579;46012;-58
2022/05/20 13:32:17;;;;;;;2.45;1.55;;;;;;;;;;143742;577;45915;-59
2022/05/20 13:34:47;;;;;;;4.85;1.87;;;;;;;;;;143742;631;46040;-59
2022/05/20 13:37:19;;;;;;;4.12;2.15;;;;;;;;;;143740;603;47022;-58
2022/05/20 13:39:46;;;;;;;4.37;1.95;;;;;;;;;;143734;623;47012;-59
2022/05/20 13:42:16;;;;;;;6.45;1.87;;;;;;;;;;143742;577;45020;-58
2022/05/20 13:44:45;;;;;;;3.65;2.00;;;;;;;;;;143745;629;46020;-59
2022/05/20 13:50:04;;;;;;;4.62;1.92;;;;;;;;;;143738;627;47012;-59
2022/05/20 13:52:35;;;;;;;3.33;1.85;;;;;;;;;;143741;569;46020;-58
2022/05/20 13:55:07;;;;;;;7.53;3.20;;;;;;;;;;143745;576;45020;-58
2022/05/20 13:57:43;;;;;;;2.12;1.55;;;;;;;;;;143740;585;47022;-58
2022/05/20 14:00:40;;;;;;;2.10;1.67;;;;;;;;;;143741;602;46030;-58
2022/05/20 14:03:25;;;;;;;2.22;1.67;;;;;;;;;;143745;571;45022;-59
2022/05/20 14:05:58;;;;;;;3.05;1.90;;;;;;;;;;143746;588;45020;-58
2022/05/20 14:08:26;;;;;;;4.57;1.87;;;;;;;;;;143741;681;47023;-58
2022/05/20 14:10:56;;;;;;;5.97;2.53;;;;;;;;;;143741;610;47012;-58
2022/05/20 14:13:46;;;;;;;3.58;1.70;;;;;;;;;;143745;588;45914;-59
2022/05/20 14:16:30;;;;;;;5.53;2.20;;;;;;;;;;143745;629;46012;-58
2022/05/20 14:19:17;;;;;;;3.37;2.15;;;;;;;;;;143743;597;47022;-58
2022/05/20 14:21:45;;;;;;;6.80;2.25;;;;;;;;;;143743;566;46015;-58
2022/05/20 14:24:36;;;;;;;3.22;1.67;;;;;;;;;;143742;587;45021;-58
2022/05/20 14:27:03;;;;;;;2.12;1.67;;;;;;;;;;143745;648;45020;-58
2022/05/20 14:29:38;;;;;;;2.90;1.58;;;;;;;;;;143741;565;47022;-58
2022/05/20 14:32:14;;;;;;;3.83;1.92;;;;;;;;;;143741;692;46012;-58
2022/05/20 14:34:46;;;;;;;2.90;2.10;;;;;;;;;;143743;578;45020;-58
2022/05/20 14:37:24;;;;;;;1.95;1.73;;;;;;;;;;143741;582;46021;-58
2022/05/20 14:40:14;;;;;;;5.22;2.28;;;;;;;;;;143740;571;47023;-58
2022/05/20 14:42:52;;;;;;;2.12;1.60;;;;;;;;;;143739;628;47012;-58
2022/05/20 14:45:35;;;;;;;2.70;1.60;;;;;;;;;;143743;598;45021;-58
2022/05/20 14:48:06;;;;;;;5.50;1.85;;;;;;;;;;143746;689;45020;-58
2022/05/20 14:50:34;;;;;;;6.32;2.33;;;;;;;;;;143743;697;47020;-58
2022/05/20 14:53:36;;;;;;;3.80;2.40;;;;;;;;;;143741;593;47012;-59
2022/05/20 14:56:03;;;;;;;2.47;1.92;;;;;;;;;;143744;564;45022;-59
2022/05/20 14:58:33;;;;;;;4.32;2.60;;;;;;;;;;143746;617;45020;-57
2022/05/20 15:01:10;;;;;;;3.70;2.12;;;;;;;;;;143740;684;47021;-58
2022/05/20 15:03:44;;;;;;;2.40;1.90;;;;;;;;;;143742;678;46012;-57
2022/05/20 15:06:20;;;;;;;;;;;;;;;;;;143748;981;45021;-57
2022/05/20 15:08:47;;;;;;;2.25;1.52;;;;;;;;;;143751;712;45021;-57
2022/05/20 15:11:23;;;;;;;2.33;1.87;;;;;;;;;;143740;575;47020;-58
2022/05/20 15:13:50;;;;;;;1.85;1.35;;;;;;;;;;143744;571;46013;-58
2022/05/20 15:16:18;;;;;;;3.67;2.10;;;;;;;;;;143746;680;45021;-58
2022/05/20 15:18:44;;;;;;;3.28;2.12;;;;;;;;;;143744;631;46020;-58
2022/05/20 15:21:15;;;;;;;2.97;1.70;;;;;;;;;;143741;684;47021;-58
2022/05/20 15:23:46;;;;;;;3.15;1.67;;;;;;;;;;143742;703;46012;-58
2022/05/20 15:26:26;;;;;;;2.50;1.77;;;;;;;;;;143744;622;45912;-58
2022/05/20 15:28:53;;;;;;;2.87;2.08;;;;;;;;;;143745;632;45021;-58
2022/05/20 15:37:21;;;;;;;3.53;1.75;;;;;;;;;;143744;672;46012;-58
2022/05/20 15:39:53;;;;;;;8.82;2.00;;;;;;;;;;143746;592;45020;-58
2022/05/20 15:42:23;;;;;;;5.50;3.03;;;;;;;;;;143742;611;47022;-57
2022/05/20 15:44:50;;;;;;;5.60;3.42;;;;;;;;;;143740;578;47013;-58
2022/05/20 15:47:18;;;;;;;8.63;2.95;;;;;;;;;;143745;648;45020;-58
2022/05/20 15:49:45;;;;;;;8.52;3.22;;;;;;;;;;143745;620;45020;-58
2022/05/20 15:52:14;;;;;;;7.10;3.20;;;;;;;;;;143741;583;47021;-58
2022/05/20 15:54:51;;;;;;;5.35;2.92;;;;;;;;;;143744;569;46012;-58
2022/05/20 15:57:20;;;;;;;7.50;3.62;;;;;;;;;;143741;581;46912;-58
2022/05/20 15:59:49;;;;;;;8.48;3.60;;;;;;;;;;143746;608;45021;-58
2022/05/20 16:02:18;;;;;;;7.97;3.58;;;;;;;;;;143742;596;47020;-58
2022/05/20 16:04:48;;;;;;;7.87;4.60;;;;;;;;;;143739;615;47012;-58
2022/05/20 16:07:20;;;;;;;10.65;4.47;;;;;;;;;;143743;587;45912;-58
2022/05/20 16:09:48;;;;;;;9.55;3.30;;;;;;;;;;143746;588;46020;-57
2022/05/20 16:12:17;;;;;;;7.55;3.58;;;;;;;;;;143743;614;47020;-57